Time;durP1;ratioP1;P1;durP2;ratioP2;P2;SDS_P1;SDS_P2;PMS_P1;PMS_P2;Temp;Humidity;BMP_temperature;BMP_pressure;BME280_temperature;BME280_humidity;BME280_pressure;Samples;Min_cycle;Max_cycle;Signal;HPM_P1;HPM_P2
2023/08/09 00:01:09;;;;;;;0.20;0.20;;;13.40;99.90;;;;;;4820533;29;20435;-82
2023/08/09 00:03:35;;;;;;;0.20;0.20;;;13.40;99.90;;;;;;4818627;29;20054;-82
2023/08/09 00:06:00;;;;;;;0.20;0.20;;;13.40;99.90;;;;;;4802887;29;20447;-82
2023/08/09 00:08:26;;;;;;;0.20;0.20;;;13.30;99.90;;;;;;4821261;29;20078;-82
2023/08/09 00:10:52;;;;;;;0.10;0.10;;;13.30;99.90;;;;;;4819796;29;20047;-82
2023/08/09 00:13:17;;;;;;;0.20;0.20;;;13.30;99.90;;;;;;4820406;29;20101;-82
2023/08/09 00:15:43;;;;;;;0.20;0.20;;;13.30;99.90;;;;;;4819760;29;20055;-82
2023/08/09 00:18:09;;;;;;;0.20;0.20;;;13.30;99.90;;;;;;4819108;29;20522;-82
2023/08/09 00:20:36;;;;;;;0.20;0.20;;;13.20;99.90;;;;;;4813734;29;20062;-82
2023/08/09 00:23:03;;;;;;;0.10;0.10;;;13.20;99.90;;;;;;4826348;29;20130;-82
2023/08/09 00:25:29;;;;;;;0.20;0.20;;;13.20;99.90;;;;;;4816734;29;20127;-82
2023/08/09 00:27:54;;;;;;;0.20;0.20;;;13.20;99.90;;;;;;4816016;29;20554;-82
2023/08/09 00:30:22;;;;;;;0.20;0.20;;;13.20;99.90;;;;;;4810130;29;20077;-82
2023/08/09 00:32:48;;;;;;;0.20;0.20;;;13.20;99.90;;;;;;4819285;29;20418;-82
2023/08/09 00:35:14;;;;;;;0.20;0.20;;;13.20;99.90;;;;;;4801675;29;20046;-82
2023/08/09 00:37:39;;;;;;;0.10;0.10;;;13.20;99.90;;;;;;4818992;29;20042;-82
2023/08/09 00:40:11;;;;;;;0.10;0.10;;;13.20;99.90;;;;;;4812910;29;20150;-82
2023/08/09 00:42:39;;;;;;;0.20;0.20;;;13.20;99.90;;;;;;4802737;29;20058;-80
2023/08/09 00:45:05;;;;;;;0.10;0.10;;;13.20;99.90;;;;;;4817537;29;20085;-82
2023/08/09 00:47:34;;;;;;;0.10;0.10;;;13.20;99.90;;;;;;4818722;29;20047;-82
2023/08/09 00:50:00;;;;;;;0.10;0.10;;;13.10;99.90;;;;;;4801384;29;20042;-81
2023/08/09 00:52:27;;;;;;;0.10;0.10;;;13.10;99.90;;;;;;4816788;29;20069;-83
2023/08/09 00:54:53;;;;;;;0.10;0.10;;;13.10;99.90;;;;;;4828330;29;20043;-82
2023/08/09 00:57:19;;;;;;;0.10;0.10;;;13.10;99.90;;;;;;4817265;29;20053;-82
2023/08/09 00:59:46;;;;;;;0.10;0.10;;;13.10;99.90;;;;;;4817941;29;20046;-82
2023/08/09 01:02:11;;;;;;;0.20;0.20;;;13.10;99.90;;;;;;4800689;29;20050;-82
2023/08/09 01:04:38;;;;;;;0.10;0.10;;;13.10;99.90;;;;;;4819048;29;20053;-82
2023/08/09 01:07:10;;;;;;;0.10;0.10;;;13.00;99.90;;;;;;4819522;29;20046;-82
2023/08/09 01:09:50;;;;;;;0.20;0.20;;;13.00;99.90;;;;;;4817553;29;20069;-82
2023/08/09 01:12:23;;;;;;;0.13;0.13;;;13.10;99.90;;;;;;4819247;29;20050;-82
2023/08/09 01:14:53;;;;;;;0.17;0.17;;;13.00;99.90;;;;;;4812842;29;20062;-82
2023/08/09 01:17:21;;;;;;;0.10;0.10;;;13.10;99.90;;;;;;4806205;29;20495;-82
2023/08/09 01:19:53;;;;;;;0.10;0.10;;;13.00;99.90;;;;;;4820721;29;20507;-82
2023/08/09 01:22:34;;;;;;;0.10;0.10;;;13.00;99.90;;;;;;4818831;29;20476;-82
2023/08/09 01:25:06;;;;;;;0.17;0.17;;;13.00;99.90;;;;;;4821370;29;20051;-82
2023/08/09 01:27:36;;;;;;;0.10;0.10;;;13.00;99.90;;;;;;4823924;29;20042;-82
2023/08/09 01:30:08;;;;;;;0.20;0.20;;;13.00;99.90;;;;;;4817280;29;20070;-82
2023/08/09 01:32:34;;;;;;;0.10;0.10;;;13.00;99.90;;;;;;4816893;29;20187;-82
2023/08/09 01:35:01;;;;;;;0.20;0.20;;;13.00;99.90;;;;;;4821079;29;20060;-82
2023/08/09 01:37:33;;;;;;;0.15;0.15;;;13.00;99.90;;;;;;4817308;29;20066;-82
2023/08/09 01:40:03;;;;;;;0.10;0.10;;;13.00;99.90;;;;;;4798689;29;20125;-82
2023/08/09 01:42:29;;;;;;;0.13;0.13;;;13.00;99.90;;;;;;4822948;29;20046;-82
2023/08/09 01:44:56;;;;;;;0.10;0.10;;;13.00;99.90;;;;;;4820539;29;20053;-82
2023/08/09 01:47:22;;;;;;;0.20;0.20;;;12.50;99.90;;;;;;4821079;29;20125;-81
2023/08/09 01:49:48;;;;;;;0.10;0.10;;;12.90;99.90;;;;;;4822315;29;20526;-82
2023/08/09 01:52:14;;;;;;;0.10;0.10;;;12.90;99.90;;;;;;4820232;29;20034;-80
2023/08/09 01:54:41;;;;;;;0.10;0.10;;;13.00;99.90;;;;;;4821362;29;20103;-82
2023/08/09 01:57:07;;;;;;;0.20;0.20;;;13.00;99.90;;;;;;4821121;29;20454;-82
2023/08/09 01:59:33;;;;;;;0.10;0.10;;;12.90;99.90;;;;;;4805251;29;20137;-82
2023/08/09 02:01:58;;;;;;;0.13;0.13;;;12.90;99.90;;;;;;4820705;29;21117;-82
2023/08/09 02:04:25;;;;;;;0.15;0.15;;;12.90;99.90;;;;;;4821292;29;20058;-80
2023/08/09 02:06:50;;;;;;;0.17;0.17;;;12.90;99.90;;;;;;4820614;29;20050;-82
2023/08/09 02:09:16;;;;;;;0.15;0.15;;;12.90;99.90;;;;;;4820815;29;20046;-83
2023/08/09 02:11:42;;;;;;;0.10;0.10;;;12.90;99.90;;;;;;4808431;29;20057;-80
2023/08/09 02:14:07;;;;;;;0.20;0.20;;;12.90;99.90;;;;;;4805895;29;20042;-82
2023/08/09 02:16:33;;;;;;;0.17;0.17;;;12.90;99.90;;;;;;4821244;29;20102;-80
2023/08/09 02:18:59;;;;;;;0.10;0.10;;;12.90;99.90;;;;;;4820190;29;20054;-80
2023/08/09 02:21:26;;;;;;;0.10;0.10;;;12.90;99.90;;;;;;4819346;29;20078;-81
2023/08/09 02:23:52;;;;;;;0.10;0.10;;;12.90;99.90;;;;;;4821302;29;20043;-82
2023/08/09 02:26:18;;;;;;;0.20;0.20;;;12.80;99.90;;;;;;4822499;29;20042;-81
2023/08/09 02:28:45;;;;;;;0.20;0.20;;;13.20;99.90;;;;;;4819634;29;20095;-81
2023/08/09 02:31:11;;;;;;;0.10;0.10;;;12.80;99.90;;;;;;4804532;29;20050;-82
2023/08/09 02:33:37;;;;;;;0.10;0.10;;;12.80;99.90;;;;;;4819182;29;20054;-81
2023/08/09 02:36:04;;;;;;;0.10;0.10;;;12.80;99.90;;;;;;4816881;29;20507;-81
2023/08/09 02:38:31;;;;;;;0.20;0.20;;;12.80;99.90;;;;;;4818921;29;20111;-81
2023/08/09 02:40:57;;;;;;;0.10;0.10;;;12.80;99.90;;;;;;4816703;29;20112;-81
2023/08/09 02:43:24;;;;;;;0.15;0.15;;;12.70;99.90;;;;;;4816945;29;20885;-81
2023/08/09 02:45:51;;;;;;;0.20;0.20;;;12.70;99.90;;;;;;4816300;29;20054;-80
2023/08/09 02:48:17;;;;;;;0.10;0.10;;;12.70;99.90;;;;;;4811264;29;20077;-81
2023/08/09 02:50:43;;;;;;;0.10;0.10;;;12.70;99.90;;;;;;4813730;29;20133;-79
2023/08/09 02:53:09;;;;;;;0.20;0.20;;;12.70;99.90;;;;;;4819920;29;20062;-80
2023/08/09 02:55:35;;;;;;;0.20;0.20;;;12.70;99.90;;;;;;4820369;29;20057;-81
2023/08/09 02:58:03;;;;;;;0.20;0.20;;;12.70;99.90;;;;;;4822531;29;20050;-81
2023/08/09 03:00:33;;;;;;;0.15;0.15;;;12.70;99.90;;;;;;4819207;29;20089;-81
2023/08/09 03:03:00;;;;;;;0.20;0.20;;;12.70;99.90;;;;;;4820681;29;20042;-81
2023/08/09 03:05:27;;;;;;;0.13;0.13;;;12.60;99.90;;;;;;4820203;29;20470;-81
2023/08/09 03:07:54;;;;;;;0.20;0.20;;;12.60;99.90;;;;;;4822513;29;20052;-81
2023/08/09 03:10:19;;;;;;;0.20;0.20;;;12.70;99.90;;;;;;4820390;29;20085;-81
2023/08/09 03:12:45;;;;;;;0.20;0.20;;;12.60;99.90;;;;;;4822276;29;20516;-80
2023/08/09 03:15:11;;;;;;;0.20;0.20;;;12.60;99.90;;;;;;4804216;29;20074;-81
2023/08/09 03:17:37;;;;;;;0.20;0.20;;;12.60;99.90;;;;;;4809860;29;20058;-80
2023/08/09 03:20:14;;;;;;;0.17;0.17;;;12.60;99.90;;;;;;4823671;29;20054;-80
2023/08/09 03:22:49;;;;;;;0.20;0.20;;;12.60;99.90;;;;;;4821806;29;20129;-81
2023/08/09 03:25:15;;;;;;;0.10;0.10;;;12.80;99.90;;;;;;4819447;29;20054;-81
2023/08/09 03:27:41;;;;;;;0.10;0.10;;;12.60;99.90;;;;;;4819185;29;20149;-81
2023/08/09 03:30:08;;;;;;;0.13;0.13;;;12.60;99.90;;;;;;4819095;29;20133;-81
2023/08/09 03:32:35;;;;;;;0.20;0.20;;;12.50;99.90;;;;;;4821461;29;20125;-81
2023/08/09 03:35:01;;;;;;;0.10;0.10;;;12.60;99.90;;;;;;4819841;29;20046;-81
2023/08/09 03:37:27;;;;;;;0.20;0.20;;;12.60;99.90;;;;;;4821293;29;20109;-81
2023/08/09 03:39:53;;;;;;;0.20;0.20;;;12.50;99.90;;;;;;4820617;29;20050;-81
2023/08/09 03:42:19;;;;;;;0.10;0.10;;;12.60;99.90;;;;;;4821313;29;20048;-80
2023/08/09 03:44:44;;;;;;;0.17;0.17;;;12.60;99.90;;;;;;4835095;29;20379;-81
2023/08/09 03:47:10;;;;;;;0.20;0.20;;;12.60;99.90;;;;;;4819194;29;20043;-81
2023/08/09 03:49:36;;;;;;;0.10;0.10;;;12.50;99.90;;;;;;4814272;29;20125;-81
2023/08/09 03:52:01;;;;;;;0.10;0.10;;;12.50;99.90;;;;;;4812873;29;20054;-81
2023/08/09 03:54:28;;;;;;;0.20;0.20;;;12.50;99.90;;;;;;4803780;29;20478;-81
2023/08/09 03:56:54;;;;;;;0.20;0.20;;;12.50;99.90;;;;;;4817151;29;20053;-81
2023/08/09 03:59:19;;;;;;;0.13;0.13;;;12.50;99.90;;;;;;4816524;29;20121;-81
2023/08/09 04:01:45;;;;;;;0.13;0.13;;;12.50;99.90;;;;;;4816721;29;20046;-81
2023/08/09 04:04:11;;;;;;;0.10;0.10;;;12.50;99.90;;;;;;4818688;29;20126;-81
2023/08/09 04:06:36;;;;;;;0.20;0.20;;;12.50;99.90;;;;;;4818388;29;20444;-81
2023/08/09 04:09:02;;;;;;;0.10;0.10;;;12.50;99.90;;;;;;4820478;29;20093;-81
2023/08/09 04:11:29;;;;;;;0.20;0.20;;;12.50;99.90;;;;;;4821638;29;20103;-81
2023/08/09 04:13:55;;;;;;;0.10;0.10;;;12.50;99.90;;;;;;4818026;29;20054;-81
2023/08/09 04:16:20;;;;;;;0.20;0.20;;;12.50;99.90;;;;;;4821269;29;20528;-81
2023/08/09 04:18:49;;;;;;;0.10;0.10;;;12.50;99.90;;;;;;4808005;29;20042;-80
2023/08/09 04:21:15;;;;;;;0.20;0.20;;;12.50;99.90;;;;;;4815773;29;20492;-81
2023/08/09 04:23:41;;;;;;;0.15;0.15;;;12.50;99.90;;;;;;4822048;29;20073;-81
2023/08/09 04:26:06;;;;;;;0.15;0.15;;;12.50;99.90;;;;;;4818667;29;20046;-81
2023/08/09 04:28:32;;;;;;;0.20;0.20;;;12.50;99.90;;;;;;4818152;29;20042;-80
2023/08/09 04:30:58;;;;;;;0.20;0.20;;;12.40;99.90;;;;;;4816121;29;20047;-80
2023/08/09 04:33:23;;;;;;;0.20;0.20;;;12.50;99.90;;;;;;4817264;29;20061;-81
2023/08/09 04:35:49;;;;;;;0.10;0.10;;;12.40;99.90;;;;;;4819121;29;20085;-81
2023/08/09 04:38:15;;;;;;;0.20;0.20;;;12.50;99.90;;;;;;4820599;29;20042;-81
2023/08/09 04:40:41;;;;;;;0.20;0.20;;;12.50;99.90;;;;;;4815118;29;20046;-81
2023/08/09 04:43:06;;;;;;;0.13;0.13;;;12.40;99.90;;;;;;4811710;29;20451;-81
2023/08/09 04:45:33;;;;;;;0.20;0.20;;;12.40;99.90;;;;;;4815239;29;20039;-80
2023/08/09 04:48:01;;;;;;;0.10;0.10;;;12.50;99.90;;;;;;4816559;29;20499;-80
2023/08/09 04:50:27;;;;;;;0.20;0.20;;;12.50;99.90;;;;;;4818686;29;20071;-81
2023/08/09 04:52:54;;;;;;;0.20;0.20;;;12.50;99.90;;;;;;4819281;29;20058;-81
2023/08/09 04:55:20;;;;;;;0.20;0.20;;;12.50;99.90;;;;;;4818067;29;20682;-81
2023/08/09 04:57:46;;;;;;;0.13;0.13;;;12.50;99.90;;;;;;4819684;29;20046;-81
2023/08/09 05:00:13;;;;;;;0.20;0.20;;;12.50;99.90;;;;;;4815898;29;20042;-81
2023/08/09 05:02:39;;;;;;;0.10;0.10;;;12.50;99.90;;;;;;4813797;29;20141;-81
2023/08/09 05:05:10;;;;;;;0.10;0.10;;;12.50;99.90;;;;;;4809190;29;20103;-81
2023/08/09 05:07:37;;;;;;;0.10;0.10;;;12.50;99.90;;;;;;4814809;29;20053;-81
2023/08/09 05:10:05;;;;;;;0.15;0.15;;;12.60;99.90;;;;;;4819183;29;20133;-81
2023/08/09 05:12:30;;;;;;;0.20;0.20;;;12.60;99.90;;;;;;4820382;29;20117;-81
2023/08/09 05:14:57;;;;;;;0.20;0.20;;;12.60;99.90;;;;;;4819762;29;20137;-80
2023/08/09 05:17:23;;;;;;;0.20;0.20;;;12.60;99.90;;;;;;4818631;29;20485;-81
2023/08/09 05:19:49;;;;;;;0.20;0.20;;;12.60;99.90;;;;;;4802126;29;20071;-81
2023/08/09 05:22:15;;;;;;;0.20;0.20;;;12.70;99.90;;;;;;4817513;29;20055;-80
2023/08/09 05:24:40;;;;;;;0.10;0.10;;;12.70;99.90;;;;;;4824543;29;20693;-81
2023/08/09 05:27:06;;;;;;;0.10;0.10;;;12.70;99.90;;;;;;4817634;29;20054;-81
2023/08/09 05:29:32;;;;;;;0.20;0.20;;;12.80;99.90;;;;;;4817226;29;20057;-80
2023/08/09 05:31:58;;;;;;;0.10;0.10;;;12.80;99.90;;;;;;4818715;29;20149;-81
2023/08/09 05:34:24;;;;;;;0.13;0.13;;;12.80;99.90;;;;;;4817834;29;20046;-80
2023/08/09 05:36:50;;;;;;;0.10;0.10;;;12.90;99.90;;;;;;4817894;29;20484;-80
2023/08/09 05:39:15;;;;;;;0.20;0.20;;;12.90;99.90;;;;;;4818461;29;20053;-80
2023/08/09 05:41:41;;;;;;;0.10;0.10;;;13.00;99.90;;;;;;4814990;29;20046;-80
2023/08/09 05:44:07;;;;;;;0.20;0.20;;;13.10;99.90;;;;;;4817449;29;20128;-80
2023/08/09 05:46:33;;;;;;;0.10;0.10;;;13.10;99.90;;;;;;4818872;29;20046;-80
2023/08/09 05:48:58;;;;;;;0.20;0.20;;;13.20;99.90;;;;;;4816685;29;20479;-79
2023/08/09 05:51:25;;;;;;;0.10;0.10;;;13.20;99.90;;;;;;4817484;29;20403;-80
2023/08/09 05:53:51;;;;;;;0.10;0.10;;;13.20;99.90;;;;;;4820747;29;20043;-80
2023/08/09 05:56:17;;;;;;;0.20;0.20;;;13.30;99.90;;;;;;4818226;29;20149;-80
2023/08/09 05:58:42;;;;;;;0.15;0.15;;;13.40;99.90;;;;;;4817447;29;20074;-80
2023/08/09 06:01:08;;;;;;;0.10;0.10;;;13.40;99.90;;;;;;4816788;29;20047;-80
2023/08/09 06:03:39;;;;;;;0.13;0.13;;;13.40;99.90;;;;;;4812280;29;20399;-78
2023/08/09 06:06:10;;;;;;;0.20;0.20;;;13.50;99.90;;;;;;4798276;29;20057;-79
2023/08/09 06:08:37;;;;;;;0.20;0.20;;;13.50;99.90;;;;;;4801722;29;20046;-78
2023/08/09 06:11:03;;;;;;;0.10;0.10;;;13.60;99.90;;;;;;4820920;29;20495;-78
2023/08/09 06:13:29;;;;;;;0.20;0.20;;;13.60;99.90;;;;;;4821402;29;20481;-79
2023/08/09 06:15:55;;;;;;;0.20;0.20;;;13.70;99.90;;;;;;4822405;29;20102;-79
2023/08/09 06:18:21;;;;;;;0.10;0.10;;;13.80;99.90;;;;;;4815124;29;20051;-79
2023/08/09 06:20:48;;;;;;;0.10;0.10;;;13.80;99.90;;;;;;4816711;29;20058;-77
2023/08/09 06:23:14;;;;;;;0.17;0.17;;;13.90;99.90;;;;;;4821886;29;20074;-78
2023/08/09 06:25:40;;;;;;;0.15;0.15;;;14.00;99.90;;;;;;4823581;29;20114;-79
2023/08/09 06:28:06;;;;;;;0.10;0.10;;;14.00;99.90;;;;;;4829150;29;20046;-78
2023/08/09 06:30:33;;;;;;;0.10;0.10;;;14.10;99.90;;;;;;4833355;29;20104;-79
2023/08/09 06:32:59;;;;;;;0.20;0.20;;;14.10;99.90;;;;;;4821492;29;20133;-79
2023/08/09 06:35:25;;;;;;;0.17;0.17;;;14.20;99.90;;;;;;4821789;29;20522;-79
2023/08/09 06:37:51;;;;;;;0.20;0.20;;;14.30;99.90;;;;;;4822666;29;20129;-79
2023/08/09 06:40:17;;;;;;;0.20;0.20;;;14.30;99.90;;;;;;4820903;29;20125;-78
2023/08/09 06:42:44;;;;;;;0.20;0.20;;;14.40;99.90;;;;;;4827034;29;20053;-78
2023/08/09 06:45:11;;;;;;;0.17;0.17;;;14.50;99.90;;;;;;4818839;29;20061;-78
2023/08/09 06:47:37;;;;;;;0.20;0.20;;;14.50;99.90;;;;;;4820819;29;20503;-78
2023/08/09 06:50:04;;;;;;;0.20;0.20;;;14.60;99.90;;;;;;4823205;29;20533;-77
2023/08/09 06:52:37;;;;;;;0.20;0.20;;;14.60;99.90;;;;;;4821472;29;20504;-78
2023/08/09 06:55:04;;;;;;;0.10;0.10;;;14.70;99.90;;;;;;4820701;29;20137;-79
2023/08/09 06:57:30;;;;;;;0.10;0.10;;;14.80;99.90;;;;;;4804702;29;20407;-79
2023/08/09 06:59:57;;;;;;;0.20;0.20;;;14.80;99.90;;;;;;4803920;29;20055;-79
2023/08/09 07:02:23;;;;;;;0.20;0.20;;;14.80;99.90;;;;;;4807287;29;20518;-79
2023/08/09 07:04:54;;;;;;;0.20;0.20;;;14.90;99.90;;;;;;4811605;29;20050;-79
2023/08/09 07:07:21;;;;;;;0.20;0.20;;;15.00;99.90;;;;;;4820577;29;20182;-80
2023/08/09 07:09:47;;;;;;;0.20;0.20;;;15.00;99.90;;;;;;4820571;29;20061;-79
2023/08/09 07:12:12;;;;;;;0.10;0.10;;;15.10;99.90;;;;;;4820746;29;20062;-79
2023/08/09 07:14:38;;;;;;;0.10;0.10;;;15.20;99.90;;;;;;4807592;29;20042;-80
2023/08/09 07:17:04;;;;;;;0.13;0.13;;;15.20;99.90;;;;;;4819418;29;20498;-79
2023/08/09 07:19:29;;;;;;;0.10;0.10;;;15.30;99.90;;;;;;4808426;29;20150;-79
2023/08/09 07:21:55;;;;;;;0.20;0.20;;;15.30;99.90;;;;;;4808886;29;20055;-80
2023/08/09 07:24:21;;;;;;;0.20;0.20;;;15.40;99.90;;;;;;4812536;29;20523;-79
2023/08/09 07:26:47;;;;;;;0.10;0.10;;;15.40;99.90;;;;;;4812204;29;20047;-79
2023/08/09 07:29:12;;;;;;;0.20;0.20;;;15.50;99.90;;;;;;4793414;29;20046;-79
2023/08/09 07:31:38;;;;;;;0.20;0.20;;;15.50;99.90;;;;;;4813250;29;20046;-79
2023/08/09 07:34:04;;;;;;;0.13;0.13;;;15.50;99.90;;;;;;4813297;29;20050;-79
2023/08/09 07:36:30;;;;;;;0.20;0.20;;;15.60;99.90;;;;;;4822550;29;20815;-79
2023/08/09 07:38:57;;;;;;;0.20;0.20;;;15.70;99.90;;;;;;4809685;29;20563;-78
2023/08/09 07:41:22;;;;;;;0.10;0.10;;;15.70;99.90;;;;;;4811182;29;20073;-79
2023/08/09 07:43:48;;;;;;;0.20;0.20;;;15.80;99.90;;;;;;4814278;29;20338;-80
2023/08/09 07:46:14;;;;;;;0.20;0.20;;;15.80;99.90;;;;;;4814593;29;20571;-79
2023/08/09 07:48:40;;;;;;;0.10;0.10;;;15.90;99.90;;;;;;4811213;29;20053;-79
2023/08/09 07:51:08;;;;;;;0.20;0.20;;;16.00;99.90;;;;;;4808147;29;20055;-80
2023/08/09 07:53:33;;;;;;;0.20;0.20;;;16.00;99.90;;;;;;4807304;29;20053;-80
2023/08/09 07:55:59;;;;;;;0.20;0.20;;;16.10;99.90;;;;;;4809397;29;20414;-79
2023/08/09 07:58:25;;;;;;;0.20;0.20;;;16.10;99.90;;;;;;4815806;29;20422;-80
2023/08/09 08:00:50;;;;;;;0.13;0.13;;;16.20;99.90;;;;;;4810007;29;20063;-79
2023/08/09 08:03:17;;;;;;;0.20;0.20;;;16.20;99.90;;;;;;4810268;29;20407;-79
2023/08/09 08:05:43;;;;;;;0.20;0.20;;;16.30;99.90;;;;;;4813139;29;20054;-79
2023/08/09 08:08:08;;;;;;;0.20;0.20;;;16.30;99.90;;;;;;4817657;29;20054;-79
2023/08/09 08:10:34;;;;;;;0.20;0.20;;;16.40;99.90;;;;;;4826674;29;20106;-78
2023/08/09 08:13:00;;;;;;;0.15;0.15;;;16.40;99.90;;;;;;4821618;29;20053;-80
2023/08/09 08:15:26;;;;;;;0.20;0.20;;;16.50;99.90;;;;;;4805282;29;20058;-79
2023/08/09 08:17:52;;;;;;;0.20;0.20;;;16.50;99.90;;;;;;4822121;29;20073;-80
2023/08/09 08:20:19;;;;;;;0.20;0.20;;;16.60;99.90;;;;;;4809451;29;20059;-79
2023/08/09 08:22:49;;;;;;;0.20;0.20;;;16.60;99.90;;;;;;4802617;29;20059;-78
2023/08/09 08:25:17;;;;;;;0.20;0.20;;;16.70;99.90;;;;;;4818480;29;20081;-79
2023/08/09 08:27:45;;;;;;;0.17;0.17;;;16.70;99.90;;;;;;4805939;29;20529;-79
2023/08/09 08:30:13;;;;;;;0.20;0.20;;;16.80;99.90;;;;;;4821631;29;20057;-80
2023/08/09 08:32:39;;;;;;;0.20;0.20;;;16.90;99.90;;;;;;4820851;29;20571;-79
2023/08/09 08:35:10;;;;;;;0.20;0.20;;;16.90;99.90;;;;;;4819405;29;20034;-79
2023/08/09 08:37:36;;;;;;;0.20;0.20;;;17.00;99.90;;;;;;4802981;29;20043;-79
2023/08/09 08:40:07;;;;;;;0.20;0.20;;;17.00;99.90;;;;;;4817582;29;20133;-79
2023/08/09 08:42:33;;;;;;;0.20;0.20;;;17.10;99.90;;;;;;4802230;29;20038;-80
2023/08/09 08:44:58;;;;;;;0.20;0.20;;;17.10;99.90;;;;;;4816624;29;20192;-79
2023/08/09 08:47:26;;;;;;;0.20;0.20;;;17.20;99.90;;;;;;4818085;29;20499;-79
2023/08/09 08:49:57;;;;;;;0.20;0.20;;;17.20;99.90;;;;;;4817196;29;20056;-79
2023/08/09 08:52:28;;;;;;;0.30;0.22;;;17.20;99.90;;;;;;4813690;29;20061;-79
2023/08/09 08:54:54;;;;;;;0.20;0.20;;;17.20;99.90;;;;;;4809495;29;20050;-79
2023/08/09 08:57:21;;;;;;;0.20;0.20;;;17.30;99.90;;;;;;4795363;29;20101;-79
2023/08/09 08:59:47;;;;;;;0.20;0.20;;;17.30;99.90;;;;;;4811847;29;20042;-79
2023/08/09 09:02:13;;;;;;;0.20;0.20;;;17.30;99.90;;;;;;4809179;29;20041;-78
2023/08/09 09:04:39;;;;;;;0.20;0.20;;;17.40;99.90;;;;;;4794110;29;20051;-80
2023/08/09 09:07:05;;;;;;;0.20;0.20;;;17.50;99.90;;;;;;4820678;29;20048;-81
2023/08/09 09:09:31;;;;;;;0.20;0.20;;;17.50;99.90;;;;;;4817708;29;20191;-80
2023/08/09 09:12:01;;;;;;;0.20;0.20;;;17.60;99.90;;;;;;4810992;29;20038;-81
2023/08/09 09:14:27;;;;;;;0.20;0.20;;;17.60;99.90;;;;;;4795154;29;20733;-80
2023/08/09 09:16:55;;;;;;;0.20;0.20;;;17.70;99.90;;;;;;4812228;29;20514;-80
2023/08/09 09:19:20;;;;;;;0.20;0.20;;;17.70;99.90;;;;;;4809923;29;20042;-81
2023/08/09 09:21:46;;;;;;;0.20;0.20;;;17.70;99.90;;;;;;4808720;29;20072;-80
2023/08/09 09:24:12;;;;;;;0.20;0.20;;;17.80;99.90;;;;;;4810692;29;20145;-81
2023/08/09 09:26:38;;;;;;;0.20;0.20;;;17.90;99.90;;;;;;4812226;29;20046;-81
2023/08/09 09:29:08;;;;;;;0.20;0.20;;;17.90;99.90;;;;;;4793834;29;20493;-80
2023/08/09 09:31:38;;;;;;;0.20;0.20;;;18.00;99.90;;;;;;4814720;29;20690;-81
2023/08/09 09:34:06;;;;;;;0.20;0.20;;;18.10;99.90;;;;;;4799115;29;20100;-80
2023/08/09 09:36:37;;;;;;;0.13;0.13;;;18.10;99.90;;;;;;4811334;29;20047;-80
2023/08/09 09:39:11;;;;;;;0.20;0.20;;;18.10;99.90;;;;;;4811130;29;20525;-80
2023/08/09 09:41:38;;;;;;;0.20;0.20;;;18.10;99.90;;;;;;4811346;29;20131;-80
2023/08/09 09:44:04;;;;;;;0.20;0.20;;;18.00;99.90;;;;;;4794168;29;20118;-81
2023/08/09 09:46:31;;;;;;;0.20;0.20;;;18.00;99.90;;;;;;4813718;29;20468;-80
2023/08/09 09:49:05;;;;;;;0.20;0.20;;;18.00;99.90;;;;;;4811795;29;20046;-81
2023/08/09 09:51:30;;;;;;;0.20;0.20;;;18.10;99.90;;;;;;4814592;29;20205;-80
2023/08/09 09:53:57;;;;;;;0.20;0.20;;;18.20;99.90;;;;;;4813149;29;20038;-80
2023/08/09 09:56:22;;;;;;;0.20;0.20;;;18.30;99.90;;;;;;4813261;29;20051;-82
2023/08/09 09:58:48;;;;;;;0.20;0.20;;;18.30;99.90;;;;;;4812662;29;20053;-81
2023/08/09 10:01:22;;;;;;;0.20;0.20;;;18.30;99.90;;;;;;4813041;29;20447;-81
2023/08/09 10:03:53;;;;;;;0.20;0.20;;;18.20;99.90;;;;;;4807762;29;20046;-80
2023/08/09 10:06:27;;;;;;;0.20;0.20;;;18.20;99.90;;;;;;4813341;29;20054;-81
2023/08/09 10:08:55;;;;;;;0.20;0.20;;;18.20;99.90;;;;;;4821533;29;20521;-80
2023/08/09 10:11:23;;;;;;;0.17;0.17;;;18.20;99.90;;;;;;4818065;29;20057;-80
2023/08/09 10:13:50;;;;;;;0.17;0.17;;;18.20;99.90;;;;;;4807213;29;20142;-80
2023/08/09 10:16:19;;;;;;;0.10;0.10;;;18.30;99.90;;;;;;4822539;29;20051;-80
2023/08/09 10:18:57;;;;;;;0.20;0.20;;;18.40;99.90;;;;;;4819208;29;20403;-81
2023/08/09 10:21:24;;;;;;;0.20;0.20;;;18.50;99.90;;;;;;4821852;29;20105;-81
2023/08/09 10:24:05;;;;;;;0.20;0.20;;;18.60;99.90;;;;;;4831400;29;20157;-80
2023/08/09 10:26:31;;;;;;;0.10;0.10;;;18.70;99.90;;;;;;4805215;29;20058;-81
2023/08/09 10:29:12;;;;;;;0.20;0.20;;;18.80;99.90;;;;;;4804295;29;20047;-81
2023/08/09 10:31:44;;;;;;;;;;;18.80;99.90;;;;;;4809338;29;20121;-81
2023/08/09 10:34:11;;;;;;;0.20;0.20;;;18.90;99.90;;;;;;4813272;29;19924;-81
2023/08/09 10:36:37;;;;;;;0.20;0.20;;;18.90;99.90;;;;;;4804893;29;20121;-81
2023/08/09 10:39:18;;;;;;;0.20;0.20;;;19.00;99.90;;;;;;4815217;29;20563;-80
2023/08/09 10:42:06;;;;;;;0.20;0.20;;;18.90;99.90;;;;;;4798229;29;20053;-81
2023/08/09 10:44:37;;;;;;;0.20;0.20;;;18.90;99.90;;;;;;4803970;29;20099;-81
2023/08/09 10:47:19;;;;;;;0.20;0.20;;;18.90;99.90;;;;;;4819334;29;20049;-80
2023/08/09 10:49:47;;;;;;;0.20;0.20;;;19.00;99.90;;;;;;4819190;29;20046;-81
2023/08/09 10:52:18;;;;;;;0.20;0.20;;;19.10;99.90;;;;;;4820546;29;20492;-81
2023/08/09 10:54:45;;;;;;;0.10;0.10;;;19.10;99.90;;;;;;4819433;29;20061;-82
2023/08/09 10:57:12;;;;;;;0.13;0.13;;;19.20;99.90;;;;;;4819940;29;20058;-82
2023/08/09 10:59:39;;;;;;;0.20;0.20;;;19.20;99.90;;;;;;4819988;29;20060;-82
2023/08/09 11:02:09;;;;;;;0.20;0.20;;;19.20;99.90;;;;;;4831103;29;20050;-82
2023/08/09 11:04:35;;;;;;;0.20;0.20;;;19.20;99.90;;;;;;4820767;29;20043;-81
2023/08/09 11:07:01;;;;;;;0.20;0.20;;;19.20;99.90;;;;;;4811896;29;20050;-82
2023/08/09 11:09:32;;;;;;;0.20;0.20;;;19.20;99.90;;;;;;4804991;29;20072;-81
2023/08/09 11:11:58;;;;;;;0.20;0.20;;;19.30;99.90;;;;;;4807043;29;20039;-80
2023/08/09 11:14:24;;;;;;;0.20;0.20;;;19.30;99.90;;;;;;4798293;29;20385;-81
2023/08/09 11:16:51;;;;;;;0.17;0.17;;;19.20;99.90;;;;;;4814791;29;20058;-82
2023/08/09 11:19:19;;;;;;;0.10;0.10;;;19.20;99.90;;;;;;4815203;29;20043;-80
2023/08/09 11:21:51;;;;;;;0.20;0.20;;;19.30;99.90;;;;;;4816440;29;20065;-80
2023/08/09 11:24:22;;;;;;;0.20;0.20;;;19.40;99.90;;;;;;4805549;29;20077;-80
2023/08/09 11:26:56;;;;;;;0.20;0.20;;;19.50;99.90;;;;;;4822438;29;20038;-80
2023/08/09 11:29:24;;;;;;;0.20;0.20;;;19.60;99.90;;;;;;4819485;29;20061;-81
2023/08/09 11:31:56;;;;;;;0.20;0.20;;;19.80;99.90;;;;;;4817748;29;20137;-80
2023/08/09 11:34:23;;;;;;;0.20;0.20;;;19.90;99.90;;;;;;4818967;29;20069;-81
2023/08/09 11:36:52;;;;;;;0.20;0.20;;;19.90;99.90;;;;;;4816816;29;20042;-81
2023/08/09 11:39:19;;;;;;;0.20;0.20;;;19.90;99.90;;;;;;4813838;29;20050;-79
2023/08/09 11:41:57;;;;;;;0.20;0.20;;;19.90;99.90;;;;;;4819400;29;20062;-79
2023/08/09 11:44:38;;;;;;;0.20;0.20;;;19.90;99.90;;;;;;4820946;29;20060;-80
2023/08/09 11:47:04;;;;;;;0.20;0.20;;;19.90;99.90;;;;;;4816174;29;20046;-80
2023/08/09 11:49:33;;;;;;;0.20;0.20;;;20.00;99.90;;;;;;4814345;29;20506;-80
2023/08/09 11:52:00;;;;;;;0.20;0.20;;;20.00;99.90;;;;;;4818520;29;20051;-80
2023/08/09 11:54:27;;;;;;;0.20;0.20;;;20.00;99.90;;;;;;4817964;29;20054;-81
2023/08/09 11:56:53;;;;;;;0.20;0.20;;;20.10;99.90;;;;;;4819236;29;20043;-82
2023/08/09 11:59:22;;;;;;;0.20;0.20;;;20.00;99.90;;;;;;4817546;29;20447;-80
2023/08/09 12:01:51;;;;;;;0.20;0.20;;;20.00;99.90;;;;;;4813870;29;20099;-81
2023/08/09 12:04:21;;;;;;;0.20;0.20;;;20.00;99.90;;;;;;4811660;29;20044;-82
2023/08/09 12:06:51;;;;;;;0.10;0.10;;;20.00;99.90;;;;;;4811557;29;20227;-81
2023/08/09 12:09:32;;;;;;;0.20;0.20;;;19.90;99.90;;;;;;4812269;29;20073;-83
2023/08/09 12:12:18;;;;;;;0.20;0.20;;;19.90;99.90;;;;;;4816474;29;20050;-81
2023/08/09 12:14:51;;;;;;;0.20;0.20;;;19.90;99.90;;;;;;4806773;29;20427;-82
2023/08/09 12:17:18;;;;;;;0.20;0.20;;;19.80;99.90;;;;;;4807904;29;20035;-82
2023/08/09 12:19:44;;;;;;;0.20;0.20;;;19.80;99.90;;;;;;4819713;29;20081;-82
2023/08/09 12:22:10;;;;;;;0.20;0.20;;;19.80;99.90;;;;;;4816805;29;20471;-81
2023/08/09 12:24:36;;;;;;;0.20;0.20;;;19.70;99.90;;;;;;4815623;29;20107;-80
2023/08/09 12:27:05;;;;;;;0.20;0.20;;;19.80;99.90;;;;;;4825568;29;20444;-80
2023/08/09 12:29:31;;;;;;;0.20;0.20;;;19.80;99.90;;;;;;4818447;29;20094;-82
2023/08/09 12:31:57;;;;;;;0.20;0.20;;;19.90;99.90;;;;;;4804072;29;20046;-81
2023/08/09 12:34:23;;;;;;;0.20;0.20;;;19.90;99.90;;;;;;4804659;29;20063;-81
2023/08/09 12:36:49;;;;;;;0.20;0.20;;;19.90;99.90;;;;;;4821241;29;20439;-82
2023/08/09 12:39:15;;;;;;;0.20;0.20;;;20.00;99.90;;;;;;4813200;29;20407;-80
2023/08/09 12:41:41;;;;;;;0.20;0.20;;;20.10;99.90;;;;;;4819397;29;20130;-80
2023/08/09 12:44:07;;;;;;;0.20;0.20;;;20.10;99.90;;;;;;4821034;29;20502;-80
2023/08/09 12:46:36;;;;;;;0.20;0.20;;;20.00;99.90;;;;;;4815558;29;20121;-81
2023/08/09 12:49:03;;;;;;;0.20;0.20;;;20.00;99.90;;;;;;4820241;29;20511;-81